sensor_id;sensor_type;location;lat;lon;timestamp;temperature;humidity
66586;SHT30;53444;45.822;16.092;2023-09-19T00:01:33;23.28;69.24
66586;SHT30;53444;45.822;16.092;2023-09-19T00:04:01;23.12;69.92
66586;SHT30;53444;45.822;16.092;2023-09-19T00:06:29;23.10;70.06
66586;SHT30;53444;45.822;16.092;2023-09-19T00:08:57;23.07;70.03
66586;SHT30;53444;45.822;16.092;2023-09-19T00:11:25;23.06;70.18
66586;SHT30;53444;45.822;16.092;2023-09-19T00:13:52;22.97;70.52
66586;SHT30;53444;45.822;16.092;2023-09-19T00:16:20;22.91;70.81
66586;SHT30;53444;45.822;16.092;2023-09-19T00:18:47;22.84;71.23
66586;SHT30;53444;45.822;16.092;2023-09-19T00:21:16;22.74;72.18
66586;SHT30;53444;45.822;16.092;2023-09-19T00:23:44;22.63;72.57
66586;SHT30;53444;45.822;16.092;2023-09-19T00:26:11;22.55;73.95
66586;SHT30;53444;45.822;16.092;2023-09-19T00:28:38;22.39;74.68
66586;SHT30;53444;45.822;16.092;2023-09-19T00:31:04;22.20;75.47
66586;SHT30;53444;45.822;16.092;2023-09-19T00:33:34;22.09;75.89
66586;SHT30;53444;45.822;16.092;2023-09-19T00:36:02;22.02;76.42
66586;SHT30;53444;45.822;16.092;2023-09-19T00:38:32;21.87;76.69
66586;SHT30;53444;45.822;16.092;2023-09-19T00:40:58;21.79;76.96
66586;SHT30;53444;45.822;16.092;2023-09-19T00:43:25;21.68;77.14
66586;SHT30;53444;45.822;16.092;2023-09-19T00:45:54;21.55;77.50
66586;SHT30;53444;45.822;16.092;2023-09-19T00:48:22;21.51;77.38
66586;SHT30;53444;45.822;16.092;2023-09-19T00:50:50;21.53;77.02
66586;SHT30;53444;45.822;16.092;2023-09-19T00:53:21;21.20;77.80
66586;SHT30;53444;45.822;16.092;2023-09-19T00:55:52;21.24;78.09
66586;SHT30;53444;45.822;16.092;2023-09-19T00:58:19;21.23;77.98
66586;SHT30;53444;45.822;16.092;2023-09-19T01:00:47;21.20;78.19
66586;SHT30;53444;45.822;16.092;2023-09-19T01:03:14;20.89;79.28
66586;SHT30;53444;45.822;16.092;2023-09-19T01:05:43;20.86;79.50
66586;SHT30;53444;45.822;16.092;2023-09-19T01:08:10;20.73;79.69
66586;SHT30;53444;45.822;16.092;2023-09-19T01:10:41;20.52;80.67
66586;SHT30;53444;45.822;16.092;2023-09-19T01:13:17;20.62;80.19
66586;SHT30;53444;45.822;16.092;2023-09-19T01:16:03;20.46;80.66
66586;SHT30;53444;45.822;16.092;2023-09-19T01:18:35;20.65;80.24
66586;SHT30;53444;45.822;16.092;2023-09-19T01:21:11;20.77;80.06
66586;SHT30;53444;45.822;16.092;2023-09-19T01:24:14;20.85;79.54
66586;SHT30;53444;45.822;16.092;2023-09-19T01:27:08;20.93;79.04
66586;SHT30;53444;45.822;16.092;2023-09-19T01:29:44;20.97;79.08
66586;SHT30;53444;45.822;16.092;2023-09-19T01:32:17;20.99;78.73
66586;SHT30;53444;45.822;16.092;2023-09-19T01:34:47;21.04;78.63
66586;SHT30;53444;45.822;16.092;2023-09-19T01:37:15;21.03;78.77
66586;SHT30;53444;45.822;16.092;2023-09-19T01:39:46;21.02;78.99
66586;SHT30;53444;45.822;16.092;2023-09-19T01:42:23;21.02;78.95
66586;SHT30;53444;45.822;16.092;2023-09-19T01:44:56;21.02;79.20
66586;SHT30;53444;45.822;16.092;2023-09-19T01:47:30;20.90;79.58
66586;SHT30;53444;45.822;16.092;2023-09-19T01:50:07;20.85;80.07
66586;SHT30;53444;45.822;16.092;2023-09-19T01:52:40;20.77;80.54
66586;SHT30;53444;45.822;16.092;2023-09-19T01:55:10;20.69;80.94
66586;SHT30;53444;45.822;16.092;2023-09-19T01:57:42;20.76;80.68
66586;SHT30;53444;45.822;16.092;2023-09-19T02:00:11;20.80;80.59
66586;SHT30;53444;45.822;16.092;2023-09-19T02:02:43;20.71;80.71
66586;SHT30;53444;45.822;16.092;2023-09-19T02:05:10;20.65;81.21
66586;SHT30;53444;45.822;16.092;2023-09-19T02:07:38;20.61;81.33
66586;SHT30;53444;45.822;16.092;2023-09-19T02:10:06;20.59;81.24
66586;SHT30;53444;45.822;16.092;2023-09-19T02:12:35;20.52;81.56
66586;SHT30;53444;45.822;16.092;2023-09-19T02:15:02;20.36;82.03
66586;SHT30;53444;45.822;16.092;2023-09-19T02:17:29;20.42;81.86
66586;SHT30;53444;45.822;16.092;2023-09-19T02:19:57;20.49;81.79
66586;SHT30;53444;45.822;16.092;2023-09-19T02:22:26;20.48;82.14
66586;SHT30;53444;45.822;16.092;2023-09-19T02:24:53;20.42;82.36
66586;SHT30;53444;45.822;16.092;2023-09-19T02:27:20;20.48;82.28
66586;SHT30;53444;45.822;16.092;2023-09-19T02:29:46;20.52;82.30
66586;SHT30;53444;45.822;16.092;2023-09-19T02:32:14;20.48;82.08
66586;SHT30;53444;45.822;16.092;2023-09-19T02:34:43;20.32;82.84
66586;SHT30;53444;45.822;16.092;2023-09-19T02:37:11;20.31;83.06
66586;SHT30;53444;45.822;16.092;2023-09-19T02:39:38;20.25;83.18
66586;SHT30;53444;45.822;16.092;2023-09-19T02:42:05;20.32;82.92
66586;SHT30;53444;45.822;16.092;2023-09-19T02:44:32;20.35;82.94
66586;SHT30;53444;45.822;16.092;2023-09-19T02:46:59;20.34;82.83
66586;SHT30;53444;45.822;16.092;2023-09-19T02:49:26;20.32;82.96
66586;SHT30;53444;45.822;16.092;2023-09-19T02:51:52;20.21;83.18
66586;SHT30;53444;45.822;16.092;2023-09-19T02:54:20;20.27;83.10
66586;SHT30;53444;45.822;16.092;2023-09-19T02:56:48;20.27;82.85
66586;SHT30;53444;45.822;16.092;2023-09-19T02:59:15;20.31;82.91
66586;SHT30;53444;45.822;16.092;2023-09-19T03:01:43;20.41;82.78
66586;SHT30;53444;45.822;16.092;2023-09-19T03:04:13;20.41;82.74
66586;SHT30;53444;45.822;16.092;2023-09-19T03:06:45;20.44;82.83
66586;SHT30;53444;45.822;16.092;2023-09-19T03:09:12;20.52;82.74
66586;SHT30;53444;45.822;16.092;2023-09-19T03:11:40;20.53;82.58
66586;SHT30;53444;45.822;16.092;2023-09-19T03:14:08;20.53;82.65
66586;SHT30;53444;45.822;16.092;2023-09-19T03:16:35;20.52;82.88
66586;SHT30;53444;45.822;16.092;2023-09-19T03:19:02;20.42;83.02
66586;SHT30;53444;45.822;16.092;2023-09-19T03:21:30;20.41;83.06
66586;SHT30;53444;45.822;16.092;2023-09-19T03:23:57;20.35;83.41
66586;SHT30;53444;45.822;16.092;2023-09-19T03:26:23;20.29;83.68
66586;SHT30;53444;45.822;16.092;2023-09-19T03:28:53;20.41;83.48
66586;SHT30;53444;45.822;16.092;2023-09-19T03:31:20;20.36;83.60
66586;SHT30;53444;45.822;16.092;2023-09-19T03:33:46;20.39;83.63
66586;SHT30;53444;45.822;16.092;2023-09-19T03:36:13;20.38;84.00
66586;SHT30;53444;45.822;16.092;2023-09-19T03:38:39;20.28;84.44
66586;SHT30;53444;45.822;16.092;2023-09-19T03:41:06;20.24;84.62
66586;SHT30;53444;45.822;16.092;2023-09-19T03:43:33;20.24;84.63
66586;SHT30;53444;45.822;16.092;2023-09-19T03:46:02;20.14;85.15
66586;SHT30;53444;45.822;16.092;2023-09-19T03:48:30;20.11;85.24
66586;SHT30;53444;45.822;16.092;2023-09-19T03:50:57;20.07;85.37
66586;SHT30;53444;45.822;16.092;2023-09-19T03:53:24;20.04;85.46
66586;SHT30;53444;45.822;16.092;2023-09-19T03:55:50;20.05;85.27
66586;SHT30;53444;45.822;16.092;2023-09-19T03:58:17;20.08;85.15
66586;SHT30;53444;45.822;16.092;2023-09-19T04:00:44;20.08;85.05
66586;SHT30;53444;45.822;16.092;2023-09-19T04:03:12;20.11;84.92
66586;SHT30;53444;45.822;16.092;2023-09-19T04:05:44;19.97;85.35
66586;SHT30;53444;45.822;16.092;2023-09-19T04:08:11;19.90;85.62
66586;SHT30;53444;45.822;16.092;2023-09-19T04:10:38;19.88;85.78
66586;SHT30;53444;45.822;16.092;2023-09-19T04:13:05;19.95;85.52
66586;SHT30;53444;45.822;16.092;2023-09-19T04:15:33;19.91;85.48
66586;SHT30;53444;45.822;16.092;2023-09-19T04:17:59;19.91;85.18
66586;SHT30;53444;45.822;16.092;2023-09-19T04:20:27;19.91;85.31
66586;SHT30;53444;45.822;16.092;2023-09-19T04:22:54;19.80;85.44
66586;SHT30;53444;45.822;16.092;2023-09-19T04:25:21;19.81;85.50
66586;SHT30;53444;45.822;16.092;2023-09-19T04:27:47;19.77;85.68
66586;SHT30;53444;45.822;16.092;2023-09-19T04:30:14;19.80;85.64
66586;SHT30;53444;45.822;16.092;2023-09-19T04:32:41;19.76;85.61
66586;SHT30;53444;45.822;16.092;2023-09-19T04:35:08;19.83;85.45
66586;SHT30;53444;45.822;16.092;2023-09-19T04:37:38;19.78;85.63
66586;SHT30;53444;45.822;16.092;2023-09-19T04:40:07;19.67;85.81
66586;SHT30;53444;45.822;16.092;2023-09-19T04:42:38;19.66;85.75
66586;SHT30;53444;45.822;16.092;2023-09-19T04:45:05;19.74;85.74
66586;SHT30;53444;45.822;16.092;2023-09-19T04:47:32;19.45;86.73
66586;SHT30;53444;45.822;16.092;2023-09-19T04:49:59;19.49;86.72
66586;SHT30;53444;45.822;16.092;2023-09-19T04:52:25;19.52;86.67
66586;SHT30;53444;45.822;16.092;2023-09-19T04:54:53;19.59;86.44
66586;SHT30;53444;45.822;16.092;2023-09-19T04:57:20;19.69;86.37
66586;SHT30;53444;45.822;16.092;2023-09-19T04:59:46;19.49;87.00
66586;SHT30;53444;45.822;16.092;2023-09-19T05:02:13;19.49;87.31
66586;SHT30;53444;45.822;16.092;2023-09-19T05:04:40;19.52;86.96
66586;SHT30;53444;45.822;16.092;2023-09-19T05:07:06;19.52;86.91
66586;SHT30;53444;45.822;16.092;2023-09-19T05:09:33;19.59;86.78
66586;SHT30;53444;45.822;16.092;2023-09-19T05:12:01;19.56;86.94
66586;SHT30;53444;45.822;16.092;2023-09-19T05:14:28;19.64;86.70
66586;SHT30;53444;45.822;16.092;2023-09-19T05:16:55;19.67;86.41
66586;SHT30;53444;45.822;16.092;2023-09-19T05:19:21;19.77;86.12
66586;SHT30;53444;45.822;16.092;2023-09-19T05:21:51;19.81;86.12
66586;SHT30;53444;45.822;16.092;2023-09-19T05:24:17;19.87;85.89
66586;SHT30;53444;45.822;16.092;2023-09-19T05:26:44;19.90;85.81
66586;SHT30;53444;45.822;16.092;2023-09-19T05:29:12;19.83;85.83
66586;SHT30;53444;45.822;16.092;2023-09-19T05:31:39;19.81;86.08
66586;SHT30;53444;45.822;16.092;2023-09-19T05:34:06;19.80;86.03
66586;SHT30;53444;45.822;16.092;2023-09-19T05:36:33;19.81;86.06
66586;SHT30;53444;45.822;16.092;2023-09-19T05:38:59;19.76;86.27
66586;SHT30;53444;45.822;16.092;2023-09-19T05:41:27;19.78;86.21
66586;SHT30;53444;45.822;16.092;2023-09-19T05:43:53;19.85;86.01
66586;SHT30;53444;45.822;16.092;2023-09-19T05:46:21;19.85;86.12
66586;SHT30;53444;45.822;16.092;2023-09-19T05:48:48;19.93;86.00
66586;SHT30;53444;45.822;16.092;2023-09-19T05:51:15;19.97;85.94
66586;SHT30;53444;45.822;16.092;2023-09-19T05:53:43;20.13;85.95
66586;SHT30;53444;45.822;16.092;2023-09-19T05:56:10;20.59;85.12
66586;SHT30;53444;45.822;16.092;2023-09-19T05:58:39;20.80;84.48
66586;SHT30;53444;45.822;16.092;2023-09-19T06:01:08;20.97;84.28
66586;SHT30;53444;45.822;16.092;2023-09-19T06:03:36;21.13;83.92
66586;SHT30;53444;45.822;16.092;2023-09-19T06:06:03;21.28;83.50
66586;SHT30;53444;45.822;16.092;2023-09-19T06:08:31;21.31;83.19
66586;SHT30;53444;45.822;16.092;2023-09-19T06:10:58;21.41;82.69
66586;SHT30;53444;45.822;16.092;2023-09-19T06:13:27;21.40;82.56
66586;SHT30;53444;45.822;16.092;2023-09-19T06:15:54;21.44;82.49
66586;SHT30;53444;45.822;16.092;2023-09-19T06:18:21;21.47;82.47
66586;SHT30;53444;45.822;16.092;2023-09-19T06:20:52;21.55;82.48
66586;SHT30;53444;45.822;16.092;2023-09-19T06:23:20;21.59;82.26
66586;SHT30;53444;45.822;16.092;2023-09-19T06:25:48;21.64;82.17
66586;SHT30;53444;45.822;16.092;2023-09-19T06:28:14;21.64;81.40
66586;SHT30;53444;45.822;16.092;2023-09-19T06:30:44;21.74;79.95
66586;SHT30;53444;45.822;16.092;2023-09-19T06:33:10;21.71;78.38
66586;SHT30;53444;45.822;16.092;2023-09-19T06:35:38;21.78;78.15
66586;SHT30;53444;45.822;16.092;2023-09-19T06:38:06;21.81;77.66
66586;SHT30;53444;45.822;16.092;2023-09-19T06:40:33;21.85;77.76
66586;SHT30;53444;45.822;16.092;2023-09-19T06:43:00;21.87;77.88
66586;SHT30;53444;45.822;16.092;2023-09-19T06:45:29;21.85;78.23
66586;SHT30;53444;45.822;16.092;2023-09-19T06:47:57;21.82;77.96
66586;SHT30;53444;45.822;16.092;2023-09-19T06:50:25;21.84;77.61
66586;SHT30;53444;45.822;16.092;2023-09-19T06:52:54;21.79;77.62
66586;SHT30;53444;45.822;16.092;2023-09-19T06:55:23;21.71;78.13
66586;SHT30;53444;45.822;16.092;2023-09-19T06:57:56;21.67;77.93
66586;SHT30;53444;45.822;16.092;2023-09-19T07:00:24;21.59;77.49
66586;SHT30;53444;45.822;16.092;2023-09-19T07:02:57;21.55;78.03
66586;SHT30;53444;45.822;16.092;2023-09-19T07:05:26;21.48;78.31
66586;SHT30;53444;45.822;16.092;2023-09-19T07:07:54;21.53;78.27
66586;SHT30;53444;45.822;16.092;2023-09-19T07:10:21;21.58;78.01
66586;SHT30;53444;45.822;16.092;2023-09-19T07:12:55;21.64;77.87
66586;SHT30;53444;45.822;16.092;2023-09-19T07:15:22;21.78;77.69
66586;SHT30;53444;45.822;16.092;2023-09-19T07:17:50;21.75;77.36
66586;SHT30;53444;45.822;16.092;2023-09-19T07:20:17;21.75;77.54
66586;SHT30;53444;45.822;16.092;2023-09-19T07:22:44;21.78;78.12
66586;SHT30;53444;45.822;16.092;2023-09-19T07:25:10;21.74;79.55
66586;SHT30;53444;45.822;16.092;2023-09-19T07:27:39;21.67;80.88
66586;SHT30;53444;45.822;16.092;2023-09-19T07:30:08;21.62;81.13
66586;SHT30;53444;45.822;16.092;2023-09-19T07:32:35;21.55;80.70
66586;SHT30;53444;45.822;16.092;2023-09-19T07:35:02;21.53;80.67
66586;SHT30;53444;45.822;16.092;2023-09-19T07:37:29;21.40;81.43
66586;SHT30;53444;45.822;16.092;2023-09-19T07:39:56;21.65;80.42
66586;SHT30;53444;45.822;16.092;2023-09-19T07:42:23;21.81;80.14
66586;SHT30;53444;45.822;16.092;2023-09-19T07:44:51;21.84;80.58
66586;SHT30;53444;45.822;16.092;2023-09-19T07:47:20;21.91;80.29
66586;SHT30;53444;45.822;16.092;2023-09-19T07:49:47;21.98;80.11
66586;SHT30;53444;45.822;16.092;2023-09-19T07:52:14;22.12;79.75
66586;SHT30;53444;45.822;16.092;2023-09-19T07:54:41;22.18;79.51
66586;SHT30;53444;45.822;16.092;2023-09-19T07:57:09;22.33;79.01
66586;SHT30;53444;45.822;16.092;2023-09-19T07:59:36;22.23;80.29
66586;SHT30;53444;45.822;16.092;2023-09-19T08:02:04;22.09;79.07
66586;SHT30;53444;45.822;16.092;2023-09-19T08:04:32;22.08;78.71
66586;SHT30;53444;45.822;16.092;2023-09-19T08:06:59;22.08;79.13
66586;SHT30;53444;45.822;16.092;2023-09-19T08:09:28;22.04;78.98
66586;SHT30;53444;45.822;16.092;2023-09-19T08:11:58;21.89;79.31
66586;SHT30;53444;45.822;16.092;2023-09-19T08:14:29;21.73;79.71
66586;SHT30;53444;45.822;16.092;2023-09-19T08:16:56;21.55;81.60
66586;SHT30;53444;45.822;16.092;2023-09-19T08:19:23;21.30;84.15
66586;SHT30;53444;45.822;16.092;2023-09-19T08:21:55;20.99;83.62
66586;SHT30;53444;45.822;16.092;2023-09-19T08:24:24;20.90;85.09
66586;SHT30;53444;45.822;16.092;2023-09-19T08:26:53;20.86;85.46
66586;SHT30;53444;45.822;16.092;2023-09-19T08:29:22;20.86;85.31
66586;SHT30;53444;45.822;16.092;2023-09-19T08:31:53;20.82;85.96
66586;SHT30;53444;45.822;16.092;2023-09-19T08:34:21;20.79;86.55
66586;SHT30;53444;45.822;16.092;2023-09-19T08:36:49;20.72;87.43
66586;SHT30;53444;45.822;16.092;2023-09-19T08:39:18;20.71;87.77
66586;SHT30;53444;45.822;16.092;2023-09-19T08:41:44;20.73;88.33
66586;SHT30;53444;45.822;16.092;2023-09-19T08:44:11;20.68;88.31
66586;SHT30;53444;45.822;16.092;2023-09-19T08:46:41;20.71;88.12
66586;SHT30;53444;45.822;16.092;2023-09-19T08:49:13;20.82;87.88
66586;SHT30;53444;45.822;16.092;2023-09-19T08:51:45;20.97;88.47
66586;SHT30;53444;45.822;16.092;2023-09-19T08:54:21;21.09;89.07
66586;SHT30;53444;45.822;16.092;2023-09-19T08:56:50;21.06;88.70
66586;SHT30;53444;45.822;16.092;2023-09-19T08:59:21;21.02;89.10
66586;SHT30;53444;45.822;16.092;2023-09-19T09:01:50;21.06;89.00
66586;SHT30;53444;45.822;16.092;2023-09-19T09:04:22;20.95;88.58
66586;SHT30;53444;45.822;16.092;2023-09-19T09:06:49;20.83;89.12
66586;SHT30;53444;45.822;16.092;2023-09-19T09:09:18;20.66;89.33
66586;SHT30;53444;45.822;16.092;2023-09-19T09:11:50;20.68;89.61
66586;SHT30;53444;45.822;16.092;2023-09-19T09:14:18;20.65;89.41
66586;SHT30;53444;45.822;16.092;2023-09-19T09:16:46;20.58;89.74
66586;SHT30;53444;45.822;16.092;2023-09-19T09:19:14;20.45;90.42
66586;SHT30;53444;45.822;16.092;2023-09-19T09:21:49;20.46;90.75
66586;SHT30;53444;45.822;16.092;2023-09-19T09:24:29;20.55;90.31
66586;SHT30;53444;45.822;16.092;2023-09-19T09:27:02;20.56;91.08
66586;SHT30;53444;45.822;16.092;2023-09-19T09:29:44;20.75;90.25
66586;SHT30;53444;45.822;16.092;2023-09-19T09:32:23;20.68;90.28
66586;SHT30;53444;45.822;16.092;2023-09-19T09:34:51;20.76;90.24
66586;SHT30;53444;45.822;16.092;2023-09-19T09:37:18;20.87;90.14
66586;SHT30;53444;45.822;16.092;2023-09-19T09:39:50;20.87;90.63
66586;SHT30;53444;45.822;16.092;2023-09-19T09:42:35;20.80;91.27
66586;SHT30;53444;45.822;16.092;2023-09-19T09:45:17;20.90;90.58
66586;SHT30;53444;45.822;16.092;2023-09-19T09:47:45;21.07;90.44
66586;SHT30;53444;45.822;16.092;2023-09-19T09:50:26;20.97;90.28
66586;SHT30;53444;45.822;16.092;2023-09-19T09:53:03;20.82;91.36
66586;SHT30;53444;45.822;16.092;2023-09-19T09:55:57;20.83;91.00
66586;SHT30;53444;45.822;16.092;2023-09-19T09:58:25;20.87;90.24
66586;SHT30;53444;45.822;16.092;2023-09-19T10:00:54;20.96;89.58
66586;SHT30;53444;45.822;16.092;2023-09-19T10:03:31;21.20;88.68
66586;SHT30;53444;45.822;16.092;2023-09-19T10:06:00;21.31;88.46
66586;SHT30;53444;45.822;16.092;2023-09-19T10:08:34;21.41;88.06
66586;SHT30;53444;45.822;16.092;2023-09-19T10:11:15;21.46;88.05
66586;SHT30;53444;45.822;16.092;2023-09-19T10:13:44;21.47;88.23
66586;SHT30;53444;45.822;16.092;2023-09-19T10:16:13;21.46;87.70
66586;SHT30;53444;45.822;16.092;2023-09-19T10:18:42;21.54;87.81
66586;SHT30;53444;45.822;16.092;2023-09-19T10:21:10;21.64;87.23
66586;SHT30;53444;45.822;16.092;2023-09-19T10:23:38;21.68;87.73
66586;SHT30;53444;45.822;16.092;2023-09-19T10:26:08;21.57;87.06
66586;SHT30;53444;45.822;16.092;2023-09-19T10:28:36;21.79;87.04
66586;SHT30;53444;45.822;16.092;2023-09-19T10:31:06;21.84;86.85
66586;SHT30;53444;45.822;16.092;2023-09-19T10:33:36;21.87;86.66
66586;SHT30;53444;45.822;16.092;2023-09-19T10:36:04;21.77;86.30
66586;SHT30;53444;45.822;16.092;2023-09-19T10:38:33;21.95;86.12
66586;SHT30;53444;45.822;16.092;2023-09-19T10:41:01;22.12;85.98
66586;SHT30;53444;45.822;16.092;2023-09-19T10:43:30;22.25;85.27
66586;SHT30;53444;45.822;16.092;2023-09-19T10:46:02;22.39;85.49
66586;SHT30;53444;45.822;16.092;2023-09-19T10:48:30;22.57;84.94
66586;SHT30;53444;45.822;16.092;2023-09-19T10:51:02;22.74;84.40
66586;SHT30;53444;45.822;16.092;2023-09-19T10:53:47;22.93;84.16
66586;SHT30;53444;45.822;16.092;2023-09-19T10:56:19;23.11;83.88
66586;SHT30;53444;45.822;16.092;2023-09-19T10:58:48;23.12;84.51
66586;SHT30;53444;45.822;16.092;2023-09-19T11:01:15;22.53;84.53
66586;SHT30;53444;45.822;16.092;2023-09-19T11:03:44;22.83;83.49
66586;SHT30;53444;45.822;16.092;2023-09-19T11:06:13;22.83;83.00
66586;SHT30;53444;45.822;16.092;2023-09-19T11:11:46;23.07;82.62
66586;SHT30;53444;45.822;16.092;2023-09-19T11:14:29;23.41;81.59
66586;SHT30;53444;45.822;16.092;2023-09-19T11:17:30;23.22;81.53
66586;SHT30;53444;45.822;16.092;2023-09-19T11:20:22;23.47;81.80
66586;SHT30;53444;45.822;16.092;2023-09-19T11:23:20;23.62;78.91
66586;SHT30;53444;45.822;16.092;2023-09-19T11:25:52;23.50;80.78
66586;SHT30;53444;45.822;16.092;2023-09-19T11:28:34;23.50;80.94
66586;SHT30;53444;45.822;16.092;2023-09-19T11:34:38;23.47;79.77
66586;SHT30;53444;45.822;16.092;2023-09-19T11:40:09;24.70;78.61
66586;SHT30;53444;45.822;16.092;2023-09-19T11:42:42;24.22;76.45
66586;SHT30;53444;45.822;16.092;2023-09-19T11:48:23;25.39;73.34
66586;SHT30;53444;45.822;16.092;2023-09-19T11:50:51;24.51;75.25
66586;SHT30;53444;45.822;16.092;2023-09-19T11:53:19;25.16;72.70
66586;SHT30;53444;45.822;16.092;2023-09-19T11:55:48;25.19;73.12
66586;SHT30;53444;45.822;16.092;2023-09-19T11:58:15;25.87;71.22
66586;SHT30;53444;45.822;16.092;2023-09-19T12:00:44;26.45;70.90
66586;SHT30;53444;45.822;16.092;2023-09-19T12:03:12;26.94;69.40
66586;SHT30;53444;45.822;16.092;2023-09-19T12:05:40;26.58;67.93
66586;SHT30;53444;45.822;16.092;2023-09-19T12:08:07;26.81;68.73
66586;SHT30;53444;45.822;16.092;2023-09-19T12:10:45;26.84;66.31
66586;SHT30;53444;45.822;16.092;2023-09-19T12:13:16;26.41;66.41
66586;SHT30;53444;45.822;16.092;2023-09-19T12:15:43;26.20;67.95
66586;SHT30;53444;45.822;16.092;2023-09-19T12:18:26;26.47;67.09
66586;SHT30;53444;45.822;16.092;2023-09-19T12:20:52;26.91;66.14
66586;SHT30;53444;45.822;16.092;2023-09-19T12:23:20;27.07;65.28
66586;SHT30;53444;45.822;16.092;2023-09-19T12:25:46;26.85;66.09
66586;SHT30;53444;45.822;16.092;2023-09-19T12:28:14;27.37;65.44
66586;SHT30;53444;45.822;16.092;2023-09-19T12:30:43;27.13;65.97
66586;SHT30;53444;45.822;16.092;2023-09-19T12:33:16;27.60;65.08
66586;SHT30;53444;45.822;16.092;2023-09-19T12:35:44;26.61;65.41
66586;SHT30;53444;45.822;16.092;2023-09-19T12:38:10;26.03;67.26
66586;SHT30;53444;45.822;16.092;2023-09-19T12:40:38;26.06;66.94
66586;SHT30;53444;45.822;16.092;2023-09-19T12:43:08;26.86;65.63
66586;SHT30;53444;45.822;16.092;2023-09-19T12:45:43;27.78;64.92
66586;SHT30;53444;45.822;16.092;2023-09-19T12:48:23;27.57;61.41
66586;SHT30;53444;45.822;16.092;2023-09-19T12:51:04;27.66;61.42
66586;SHT30;53444;45.822;16.092;2023-09-19T12:53:33;27.90;61.65
66586;SHT30;53444;45.822;16.092;2023-09-19T12:56:03;27.88;62.29
66586;SHT30;53444;45.822;16.092;2023-09-19T12:58:33;27.33;64.24
66586;SHT30;53444;45.822;16.092;2023-09-19T13:01:01;27.87;62.26
66586;SHT30;53444;45.822;16.092;2023-09-19T13:03:30;28.44;59.90
66586;SHT30;53444;45.822;16.092;2023-09-19T13:06:01;28.72;58.86
66586;SHT30;53444;45.822;16.092;2023-09-19T13:08:30;29.19;59.15
66586;SHT30;53444;45.822;16.092;2023-09-19T13:11:05;29.51;58.37
66586;SHT30;53444;45.822;16.092;2023-09-19T13:13:40;28.52;58.70
66586;SHT30;53444;45.822;16.092;2023-09-19T13:16:11;27.91;62.21
66586;SHT30;53444;45.822;16.092;2023-09-19T13:18:47;28.09;63.19
66586;SHT30;53444;45.822;16.092;2023-09-19T13:21:17;29.16;60.52
66586;SHT30;53444;45.822;16.092;2023-09-19T13:23:50;29.30;56.81
66586;SHT30;53444;45.822;16.092;2023-09-19T13:26:17;29.84;55.96
66586;SHT30;53444;45.822;16.092;2023-09-19T13:28:44;28.09;58.34
66586;SHT30;53444;45.822;16.092;2023-09-19T13:31:14;28.24;59.56
66586;SHT30;53444;45.822;16.092;2023-09-19T13:33:45;29.64;57.78
66586;SHT30;53444;45.822;16.092;2023-09-19T13:36:12;28.95;58.37
66586;SHT30;53444;45.822;16.092;2023-09-19T13:38:39;29.03;57.45
66586;SHT30;53444;45.822;16.092;2023-09-19T13:41:08;29.44;57.94
66586;SHT30;53444;45.822;16.092;2023-09-19T13:43:35;30.43;57.12
66586;SHT30;53444;45.822;16.092;2023-09-19T13:46:02;30.23;57.05
66586;SHT30;53444;45.822;16.092;2023-09-19T13:48:30;29.89;57.63
66586;SHT30;53444;45.822;16.092;2023-09-19T13:50:57;27.77;62.85
66586;SHT30;53444;45.822;16.092;2023-09-19T13:53:23;28.69;61.20
66586;SHT30;53444;45.822;16.092;2023-09-19T13:55:51;29.44;59.57
66586;SHT30;53444;45.822;16.092;2023-09-19T13:58:18;29.71;58.26
66586;SHT30;53444;45.822;16.092;2023-09-19T14:00:44;27.66;63.28
66586;SHT30;53444;45.822;16.092;2023-09-19T14:03:11;26.47;64.65
66586;SHT30;53444;45.822;16.092;2023-09-19T14:05:39;26.92;64.00
66586;SHT30;53444;45.822;16.092;2023-09-19T14:08:07;26.99;62.52
66586;SHT30;53444;45.822;16.092;2023-09-19T14:10:34;27.05;63.85
66586;SHT30;53444;45.822;16.092;2023-09-19T14:13:01;27.33;63.17
66586;SHT30;53444;45.822;16.092;2023-09-19T14:15:28;27.49;62.47
66586;SHT30;53444;45.822;16.092;2023-09-19T14:17:56;28.31;59.93
66586;SHT30;53444;45.822;16.092;2023-09-19T14:20:24;27.74;62.02
66586;SHT30;53444;45.822;16.092;2023-09-19T14:22:53;28.37;61.16
66586;SHT30;53444;45.822;16.092;2023-09-19T14:25:20;29.29;59.10
66586;SHT30;53444;45.822;16.092;2023-09-19T14:27:47;30.80;55.55
66586;SHT30;53444;45.822;16.092;2023-09-19T14:30:14;29.98;56.84
66586;SHT30;53444;45.822;16.092;2023-09-19T14:32:41;31.27;54.26
66586;SHT30;53444;45.822;16.092;2023-09-19T14:35:08;32.40;52.17
66586;SHT30;53444;45.822;16.092;2023-09-19T14:37:35;31.49;52.08
66586;SHT30;53444;45.822;16.092;2023-09-19T14:40:06;31.27;53.92
66586;SHT30;53444;45.822;16.092;2023-09-19T14:42:34;31.28;53.62
66586;SHT30;53444;45.822;16.092;2023-09-19T14:45:04;29.99;55.25
66586;SHT30;53444;45.822;16.092;2023-09-19T14:47:31;29.41;56.72
66586;SHT30;53444;45.822;16.092;2023-09-19T14:49:59;29.71;56.06
66586;SHT30;53444;45.822;16.092;2023-09-19T14:52:26;31.17;53.90
66586;SHT30;53444;45.822;16.092;2023-09-19T14:54:54;31.81;52.35
66586;SHT30;53444;45.822;16.092;2023-09-19T14:57:22;32.61;50.05
66586;SHT30;53444;45.822;16.092;2023-09-19T14:59:50;33.24;48.57
66586;SHT30;53444;45.822;16.092;2023-09-19T15:02:17;32.19;49.82
66586;SHT30;53444;45.822;16.092;2023-09-19T15:04:44;31.42;51.77
66586;SHT30;53444;45.822;16.092;2023-09-19T15:07:12;31.55;52.38
66586;SHT30;53444;45.822;16.092;2023-09-19T15:09:40;29.17;56.38
66586;SHT30;53444;45.822;16.092;2023-09-19T15:12:06;29.29;56.06
66586;SHT30;53444;45.822;16.092;2023-09-19T15:14:34;28.96;57.24
66586;SHT30;53444;45.822;16.092;2023-09-19T15:17:01;28.34;58.19
66586;SHT30;53444;45.822;16.092;2023-09-19T15:19:30;28.60;59.40
66586;SHT30;53444;45.822;16.092;2023-09-19T15:21:56;27.67;61.54
66586;SHT30;53444;45.822;16.092;2023-09-19T15:24:23;28.07;61.24
66586;SHT30;53444;45.822;16.092;2023-09-19T15:26:52;27.10;64.00
66586;SHT30;53444;45.822;16.092;2023-09-19T15:29:21;27.36;63.94
66586;SHT30;53444;45.822;16.092;2023-09-19T15:31:49;26.35;66.24
66586;SHT30;53444;45.822;16.092;2023-09-19T15:34:16;26.25;66.31
66586;SHT30;53444;45.822;16.092;2023-09-19T15:36:42;26.41;65.12
66586;SHT30;53444;45.822;16.092;2023-09-19T15:39:10;26.03;66.11
66586;SHT30;53444;45.822;16.092;2023-09-19T15:41:38;26.10;65.73